createdAt,value
2022-10-06T00:01:15.322Z,11.55
2022-10-06T00:03:43.469Z,11.88
2022-10-06T00:06:14.142Z,11.63
2022-10-06T00:08:43.468Z,12.38
2022-10-06T00:11:13.251Z,16.17
2022-10-06T00:13:41.513Z,9.23
2022-10-06T00:16:12.825Z,10.32
2022-10-06T00:19:06.287Z,11.13
2022-10-06T00:21:34.192Z,12.32
2022-10-06T00:24:02.065Z,10.55
2022-10-06T00:26:30.860Z,11.02
2022-10-06T00:28:58.756Z,13.32
2022-10-06T00:31:28.007Z,12.52
2022-10-06T00:33:56.286Z,9.70
2022-10-06T00:36:24.237Z,15.35
2022-10-06T00:38:52.077Z,13.57
2022-10-06T00:41:19.941Z,13.32
2022-10-06T00:43:51.411Z,12.98
2022-10-06T00:46:45.138Z,11.32
2022-10-06T00:49:18.806Z,12.50
2022-10-06T00:51:50.614Z,16.67
2022-10-06T00:54:19.856Z,20.63
2022-10-06T00:56:47.873Z,13.27
2022-10-06T00:59:17.588Z,15.35
2022-10-06T01:01:54.964Z,14.35
2022-10-06T01:04:24.545Z,14.75
2022-10-06T01:06:55.389Z,18.33
2022-10-06T01:09:24.600Z,13.65
2022-10-06T01:11:54.854Z,16.02
2022-10-06T01:14:23.585Z,11.48
2022-10-06T01:16:58.004Z,16.30
2022-10-06T01:19:36.869Z,13.43
2022-10-06T01:22:08.358Z,12.38
2022-10-06T01:24:37.936Z,13.35
2022-10-06T01:27:09.284Z,16.83
2022-10-06T01:29:37.880Z,16.85
2022-10-06T05:46:29.988Z,59.13
2022-10-06T05:49:00.275Z,47.13
2022-10-06T05:51:31.240Z,26.63
2022-10-06T05:53:59.716Z,64.72
2022-10-06T05:56:29.426Z,41.13
2022-10-06T05:58:58.621Z,25.25
2022-10-06T06:01:29.785Z,14.35
2022-10-06T06:04:00.293Z,20.58
2022-10-06T06:06:30.352Z,12.38
2022-10-06T06:09:00.085Z,17.15
2022-10-06T06:11:28.861Z,11.00
2022-10-06T06:13:58.042Z,13.50
2022-10-06T06:16:25.745Z,11.33
2022-10-06T06:18:55.419Z,8.77
2022-10-06T06:21:23.517Z,12.25
2022-10-06T06:23:51.398Z,9.35
2022-10-06T06:26:23.456Z,6.78
2022-10-06T06:28:51.793Z,9.45
2022-10-06T06:31:22.119Z,5.55
2022-10-06T06:33:53.307Z,6.55
2022-10-06T06:36:49.361Z,6.63
2022-10-06T06:39:20.030Z,6.55
2022-10-06T06:41:48.884Z,7.35
2022-10-06T06:44:18.954Z,12.88
2022-10-06T06:47:05.588Z,17.98
2022-10-06T06:49:53.983Z,11.88
2022-10-06T06:52:43.944Z,14.60
2022-10-06T06:58:20.719Z,11.13
2022-10-06T07:01:12.104Z,18.88
2022-10-06T07:04:00.459Z,12.10
2022-10-06T07:06:29.844Z,7.28
2022-10-06T07:09:00.238Z,9.90
2022-10-06T07:11:46.436Z,6.43
2022-10-06T07:14:14.310Z,5.93
2022-10-06T07:17:00.193Z,6.03
2022-10-06T07:19:45.384Z,4.03
2022-10-06T07:22:35.746Z,3.38
2022-10-06T07:25:12.582Z,5.43
2022-10-06T07:27:43.385Z,6.45
2022-10-06T07:30:13.294Z,1.13
2022-10-06T07:35:09.645Z,2.00
2022-10-06T07:37:37.576Z,4.63
2022-10-06T07:40:08.729Z,1.30
2022-10-06T07:42:48.868Z,2.35
2022-10-06T07:45:36.192Z,3.70
2022-10-06T07:48:06.424Z,1.98
2022-10-06T07:50:34.903Z,5.05
2022-10-06T07:53:04.913Z,2.05
2022-10-06T07:55:34.492Z,4.38
2022-10-06T07:58:02.365Z,5.55
2022-10-06T08:00:30.293Z,4.25
2022-10-06T08:02:58.276Z,3.05
2022-10-06T08:05:26.156Z,7.93
2022-10-06T08:07:55.005Z,8.05
2022-10-06T08:10:22.957Z,8.43
2022-10-06T08:12:52.133Z,13.27
2022-10-06T08:15:20.654Z,10.90
2022-10-06T08:17:48.598Z,14.77
2022-10-06T08:20:18.352Z,8.50
2022-10-06T08:22:49.121Z,9.27
2022-10-06T08:25:17.202Z,7.82
2022-10-06T08:27:45.298Z,9.07
2022-10-06T08:30:16.318Z,7.93
2022-10-06T08:32:44.232Z,11.52
2022-10-06T08:35:12.315Z,7.72
2022-10-06T08:37:40.201Z,5.93
2022-10-06T08:40:13.481Z,6.55
2022-10-06T08:42:44.054Z,8.10
2022-10-06T08:45:21.787Z,6.22
2022-10-06T08:47:57.580Z,5.07
2022-10-06T08:50:28.792Z,5.72
2022-10-06T08:53:07.076Z,10.05
2022-10-06T08:55:43.042Z,5.93
2022-10-06T08:58:33.372Z,5.78
2022-10-06T09:01:16.273Z,8.32
2022-10-06T09:03:48.391Z,5.25
2022-10-06T09:06:23.890Z,8.93
2022-10-06T09:08:56.049Z,5.45
2022-10-06T09:11:47.854Z,6.72
2022-10-06T09:14:21.185Z,7.13
2022-10-06T09:16:54.743Z,3.22
2022-10-06T09:19:31.428Z,4.22
2022-10-06T09:22:04.720Z,8.50
2022-10-06T09:24:38.411Z,3.63
2022-10-06T09:27:18.663Z,10.82
2022-10-06T09:29:48.665Z,16.63
2022-10-06T09:32:18.373Z,7.68
2022-10-06T09:34:51.095Z,4.70
2022-10-06T09:37:19.398Z,8.05
2022-10-06T09:39:50.881Z,5.72
2022-10-06T09:42:22.143Z,10.57
2022-10-06T09:44:58.326Z,8.30
2022-10-06T09:47:45.001Z,5.53
2022-10-06T09:50:20.609Z,13.40
2022-10-06T09:53:21.983Z,13.88
2022-10-06T09:55:54.842Z,6.45
2022-10-06T09:58:32.785Z,7.03
2022-10-06T10:01:02.717Z,7.32
2022-10-06T10:04:15.675Z,11.13
2022-10-06T10:06:40.485Z,16.80
2022-10-06T10:09:24.652Z,9.07
2022-10-06T10:12:21.514Z,7.40
2022-10-06T10:14:49.496Z,7.18
2022-10-06T10:17:21.068Z,5.78
2022-10-06T10:19:54.375Z,4.40
2022-10-06T10:22:26.163Z,5.10
2022-10-06T10:25:05.444Z,7.25
2022-10-06T10:28:04.644Z,7.40
2022-10-06T10:30:34.393Z,7.80
2022-10-06T10:33:09.001Z,4.05
2022-10-06T10:35:42.035Z,8.13
2022-10-06T10:38:18.136Z,13.50
2022-10-06T10:40:50.429Z,7.13
2022-10-06T10:43:27.579Z,7.30
2022-10-06T10:46:00.026Z,5.65
2022-10-06T10:48:33.484Z,6.50
2022-10-06T10:51:07.979Z,3.22
2022-10-06T10:53:44.106Z,4.22
2022-10-06T10:56:14.260Z,8.57
2022-10-06T10:58:43.855Z,8.50
2022-10-06T11:01:23.553Z,6.38
2022-10-06T11:03:56.708Z,5.53
2022-10-06T11:06:54.323Z,5.45
2022-10-06T11:09:28.196Z,3.85
2022-10-06T11:12:09.499Z,6.82
2022-10-06T11:14:53.308Z,3.15
2022-10-06T11:17:44.041Z,3.58
2022-10-06T11:20:26.414Z,8.52
2022-10-06T11:23:00.809Z,7.22
2022-10-06T11:25:35.230Z,6.78
2022-10-06T11:28:11.869Z,7.85
2022-10-06T11:30:55.399Z,4.25
2022-10-06T11:33:30.419Z,3.78
2022-10-06T11:35:58.303Z,5.10
2022-10-06T11:38:34.755Z,6.03
2022-10-06T11:41:11.763Z,5.75
2022-10-06T11:43:47.012Z,8.23
2022-10-06T11:46:32.485Z,5.93
2022-10-06T11:49:39.417Z,2.92
2022-10-06T11:52:36.205Z,3.30
2022-10-06T11:55:19.629Z,5.53
2022-10-06T11:58:23.445Z,4.80
2022-10-06T12:00:55.555Z,4.57
2022-10-06T12:03:47.295Z,5.60
2022-10-06T12:06:57.013Z,3.25
2022-10-06T12:09:51.766Z,9.52
2022-10-06T12:13:05.724Z,4.70
2022-10-06T12:18:45.984Z,3.67
2022-10-06T12:21:34.673Z,5.07
2022-10-06T12:24:18.458Z,5.15
2022-10-06T12:26:55.945Z,4.78
2022-10-06T12:29:39.118Z,5.00
2022-10-06T12:32:16.833Z,4.75
2022-10-06T12:35:03.082Z,3.42
2022-10-06T12:37:44.036Z,5.38
2022-10-06T12:40:49.584Z,3.97
2022-10-06T12:44:05.318Z,6.57
2022-10-06T12:46:43.652Z,6.60
2022-10-06T12:49:44.506Z,7.18
2022-10-06T12:52:30.782Z,3.45
2022-10-06T12:55:28.982Z,6.53
2022-10-06T12:57:56.802Z,6.25
2022-10-06T13:00:38.482Z,7.85
2022-10-06T13:03:14.233Z,2.95
2022-10-06T13:05:50.324Z,7.07
2022-10-06T13:08:26.429Z,6.78
2022-10-06T13:11:12.976Z,5.05
2022-10-06T13:13:47.862Z,6.07
2022-10-06T13:16:15.782Z,8.15
2022-10-06T13:18:45.163Z,7.85
2022-10-06T13:21:16.153Z,8.20
2022-10-06T13:23:46.301Z,8.68
2022-10-06T13:26:21.482Z,4.57
2022-10-06T13:28:51.006Z,8.45
2022-10-06T13:31:21.738Z,4.97
2022-10-06T13:33:54.996Z,9.45
2022-10-06T13:36:23.636Z,8.05
2022-10-06T13:38:53.223Z,3.95
2022-10-06T13:41:29.422Z,3.80
2022-10-06T13:44:00.863Z,4.78
2022-10-06T13:46:31.312Z,2.85
2022-10-06T13:49:03.771Z,7.70
2022-10-06T13:51:33.428Z,6.07
2022-10-06T13:54:05.382Z,5.50
2022-10-06T13:56:38.865Z,3.40
2022-10-06T13:59:35.573Z,6.03
2022-10-06T14:05:27.113Z,7.05
2022-10-06T14:07:57.663Z,6.30
2022-10-06T14:10:31.056Z,6.22
2022-10-06T14:13:01.626Z,6.93
2022-10-06T14:15:33.313Z,5.45
2022-10-06T14:18:04.433Z,6.65
2022-10-06T14:20:46.795Z,6.13
2022-10-06T14:23:45.201Z,11.63
2022-10-06T14:26:14.040Z,9.32
2022-10-06T14:28:47.072Z,4.80
2022-10-06T14:31:15.424Z,4.68
2022-10-06T14:33:43.721Z,5.00
2022-10-06T14:36:20.170Z,5.28
2022-10-06T14:38:49.472Z,4.18
2022-10-06T14:41:19.336Z,5.22
2022-10-06T14:43:48.307Z,7.55
2022-10-06T14:46:16.315Z,8.00
2022-10-06T14:48:44.253Z,3.25
2022-10-06T14:51:12.118Z,7.70
2022-10-06T14:53:41.395Z,7.68
2022-10-06T14:56:11.367Z,10.18
2022-10-06T14:58:40.174Z,9.50
2022-10-06T15:01:09.161Z,7.10
2022-10-06T15:03:37.291Z,6.83
2022-10-06T15:06:24.897Z,7.32
2022-10-06T15:08:55.887Z,6.35
2022-10-06T15:11:25.865Z,9.38
2022-10-06T15:13:55.156Z,12.43
2022-10-06T15:16:24.040Z,10.77
2022-10-06T15:18:52.652Z,8.80
2022-10-06T15:21:23.142Z,8.45
2022-10-06T15:23:57.764Z,9.77
2022-10-06T15:26:43.693Z,18.60
2022-10-06T15:29:11.915Z,15.13
2022-10-06T15:31:42.003Z,19.98
2022-10-06T15:34:15.731Z,10.45
2022-10-06T15:36:44.972Z,18.67
2022-10-06T15:39:18.150Z,18.55
2022-10-06T15:41:47.140Z,19.25
2022-10-06T15:44:16.295Z,13.63
2022-10-06T15:46:47.520Z,11.68
2022-10-06T15:49:18.354Z,17.05
2022-10-06T15:51:49.258Z,14.38
2022-10-06T15:54:20.598Z,17.80
2022-10-06T15:56:49.838Z,21.10
2022-10-06T15:59:18.989Z,19.23
2022-10-06T16:01:47.823Z,14.73
2022-10-06T16:04:25.444Z,8.97
2022-10-06T16:06:55.897Z,8.70
2022-10-06T16:09:26.816Z,5.50
2022-10-06T16:11:56.947Z,13.10
2022-10-06T16:14:25.733Z,5.65
2022-10-06T16:16:54.259Z,7.03
2022-10-06T16:31:02.658Z,10.02
2022-10-06T16:33:30.869Z,9.65
2022-10-06T16:36:00.257Z,7.78
2022-10-06T16:38:28.490Z,8.88
2022-10-06T16:40:57.686Z,7.85
2022-10-06T16:43:33.021Z,13.60
2022-10-06T16:46:04.934Z,12.88
2022-10-06T16:48:34.614Z,15.98
2022-10-06T16:51:08.113Z,16.35
2022-10-06T16:53:38.155Z,21.13
2022-10-06T16:56:08.051Z,16.13
2022-10-06T17:01:07.043Z,22.75
2022-10-06T17:03:35.867Z,37.35
2022-10-06T17:06:06.378Z,43.08
2022-10-06T17:08:35.319Z,39.20
2022-10-06T17:11:06.978Z,43.45
2022-10-06T17:13:36.193Z,42.33
2022-10-06T17:16:09.144Z,35.13
2022-10-06T17:18:37.319Z,27.75
2022-10-06T17:21:25.773Z,35.42
2022-10-06T17:23:58.242Z,24.58
2022-10-06T17:26:27.574Z,30.52
2022-10-06T17:28:58.813Z,32.53
2022-10-06T17:31:32.673Z,35.38
2022-10-06T17:34:01.366Z,45.58
2022-10-06T17:36:30.525Z,38.22
2022-10-06T17:39:25.614Z,42.33
2022-10-06T17:41:55.434Z,45.83
2022-10-06T17:46:59.189Z,67.22
2022-10-06T17:49:30.040Z,72.43
2022-10-06T17:51:58.674Z,72.50
2022-10-06T17:54:28.785Z,46.67
2022-10-06T17:56:59.221Z,48.25
2022-10-06T17:59:30.530Z,47.17
2022-10-06T18:02:02.594Z,44.38
2022-10-06T18:04:31.306Z,54.15
2022-10-06T18:07:00.464Z,41.00
2022-10-06T18:09:29.379Z,43.53
2022-10-06T18:11:59.834Z,54.10
2022-10-06T18:14:32.271Z,92.25
2022-10-06T18:17:04.276Z,84.20
2022-10-06T18:19:33.989Z,114.00
2022-10-06T18:22:03.905Z,50.97
2022-10-06T18:27:02.068Z,53.20
2022-10-06T18:29:32.499Z,47.03
2022-10-06T18:32:59.229Z,45.63
2022-10-06T18:37:40.247Z,56.22
2022-10-06T18:40:09.801Z,58.43
2022-10-06T18:42:38.492Z,58.75
2022-10-06T18:45:22.044Z,49.97
2022-10-06T18:48:09.417Z,71.45
2022-10-06T18:50:37.743Z,48.95
2022-10-06T18:53:05.976Z,31.92
2022-10-06T18:55:35.160Z,37.63
2022-10-06T18:58:04.695Z,36.57
2022-10-06T19:00:33.307Z,49.53
2022-10-06T19:03:02.526Z,49.13
2022-10-06T19:05:30.976Z,47.70
2022-10-06T19:07:58.850Z,44.92
2022-10-06T19:10:27.036Z,40.92
2022-10-06T19:12:54.844Z,44.75
2022-10-06T19:15:22.685Z,21.83
2022-10-06T19:17:50.921Z,20.33
2022-10-06T19:20:20.289Z,26.13
2022-10-06T19:22:48.294Z,17.58
2022-10-06T19:25:18.557Z,26.95
2022-10-06T19:27:46.708Z,26.38
2022-10-06T19:30:14.756Z,23.13
2022-10-06T19:32:42.736Z,29.33
2022-10-06T19:35:11.020Z,43.92
2022-10-06T19:37:40.997Z,43.13
2022-10-06T19:40:11.285Z,43.47
2022-10-06T19:42:51.088Z,40.60
2022-10-06T19:45:20.667Z,35.08
2022-10-06T19:47:48.561Z,35.38
2022-10-06T19:50:17.856Z,33.35
2022-10-06T19:52:47.168Z,31.42
2022-10-06T19:55:15.160Z,34.63
2022-10-06T19:57:43.632Z,37.40
2022-10-06T20:00:12.914Z,25.25
2022-10-06T20:02:42.857Z,29.13
2022-10-06T20:05:12.627Z,29.85
2022-10-06T20:07:41.582Z,18.77
2022-10-06T20:10:11.893Z,18.10
2022-10-06T20:12:41.281Z,14.35
2022-10-06T20:15:09.740Z,16.25
2022-10-06T20:17:37.733Z,17.58
2022-10-06T20:20:06.479Z,19.10
2022-10-06T20:22:34.385Z,23.80
2022-10-06T20:25:02.518Z,23.92
2022-10-06T20:27:31.726Z,24.38
2022-10-06T20:29:59.648Z,19.65
2022-10-06T20:32:27.517Z,28.58
2022-10-06T20:34:55.385Z,27.38
2022-10-06T20:37:23.225Z,29.42
2022-10-06T20:40:08.507Z,26.30
2022-10-06T20:42:37.724Z,21.55
2022-10-06T20:45:07.057Z,22.48
2022-10-06T20:47:34.944Z,46.47
2022-10-06T20:50:02.853Z,40.35
2022-10-06T20:52:31.613Z,39.20
2022-10-06T20:54:59.536Z,42.42
2022-10-06T20:57:32.849Z,34.70
2022-10-06T21:00:03.234Z,32.78
2022-10-06T21:02:32.003Z,25.88
2022-10-06T21:05:01.484Z,31.52
2022-10-06T21:07:29.537Z,37.58
2022-10-06T21:09:57.730Z,35.08
2022-10-06T21:12:25.740Z,39.03
2022-10-06T21:14:53.691Z,33.45
2022-10-06T21:17:22.924Z,30.92
2022-10-06T21:19:50.835Z,21.17
2022-10-06T21:22:18.807Z,23.85
2022-10-06T21:24:46.745Z,19.58
2022-10-06T21:27:18.303Z,16.92
2022-10-06T21:29:46.297Z,15.90
2022-10-06T21:32:14.159Z,21.67
2022-10-06T21:34:43.612Z,30.75
2022-10-06T21:37:13.591Z,20.52
2022-10-06T21:42:10.167Z,23.83
2022-10-06T21:44:38.110Z,17.98
2022-10-06T21:47:06.340Z,14.75
2022-10-06T21:49:34.325Z,15.50
2022-10-06T21:52:05.417Z,15.05
2022-10-06T21:54:33.519Z,22.13
2022-10-06T21:57:01.458Z,22.10
2022-10-06T21:59:29.354Z,13.73
2022-10-06T22:01:57.322Z,16.13
2022-10-06T22:04:27.280Z,14.90
2022-10-06T22:09:24.428Z,18.23
2022-10-06T22:11:52.329Z,19.83
2022-10-06T22:14:20.483Z,14.93
2022-10-06T22:16:48.521Z,17.45
2022-10-06T22:19:17.735Z,13.68
2022-10-06T22:21:48.157Z,22.83
2022-10-06T22:24:23.762Z,17.27
2022-10-06T22:26:51.687Z,14.57
2022-10-06T22:29:21.009Z,18.88
2022-10-06T22:31:49.880Z,22.67
2022-10-06T22:34:19.608Z,21.07
2022-10-06T22:36:47.671Z,16.55
2022-10-06T22:39:15.669Z,51.95
2022-10-06T22:41:45.409Z,28.50
2022-10-06T22:44:13.396Z,23.45
2022-10-06T22:46:41.419Z,14.68
2022-10-06T22:49:09.424Z,16.50
2022-10-06T22:51:37.346Z,20.48
2022-10-06T22:54:05.652Z,13.20
2022-10-06T22:56:34.766Z,16.67
2022-10-06T22:59:04.100Z,12.35
2022-10-06T23:01:32.123Z,16.63
2022-10-06T23:04:00.095Z,11.30
2022-10-06T23:06:31.055Z,11.88
2022-10-06T23:08:59.265Z,14.32
2022-10-06T23:11:27.244Z,11.07
2022-10-06T23:13:55.205Z,11.82
2022-10-06T23:16:24.778Z,16.77
2022-10-06T23:18:52.795Z,8.75
2022-10-06T23:21:22.642Z,14.13
2022-10-06T23:23:52.412Z,16.88
2022-10-06T23:26:21.418Z,15.63
2022-10-06T23:28:53.322Z,10.18
2022-10-06T23:31:21.313Z,7.60
2022-10-06T23:33:50.660Z,13.57
2022-10-06T23:36:18.992Z,11.85
2022-10-06T23:38:47.619Z,18.45
2022-10-06T23:41:15.902Z,13.82
2022-10-06T23:43:44.001Z,11.85
2022-10-06T23:46:12.431Z,10.02
2022-10-06T23:48:40.448Z,9.48
2022-10-06T23:51:11.560Z,9.23
2022-10-06T23:53:39.523Z,18.00
2022-10-06T23:56:08.074Z,11.55
2022-10-06T23:58:36.039Z,9.75
